Saturday, November 22, 2014, 5:02 AM EST

KLNS, Lancaster Airport

Location: Lititz, PA, United States Lat: 40.117
Local Time: 5:02 AM EST (10:02 GMT) Lon: -76.3
Time Zone: US/Eastern Elev: 403 ft

Show me the last for .
Show Decoded

2014-11-22 03:53 METAR KLNS 220853Z AUTO 00000KT 10SM CLR M07/M12 A3050 RMK AO2 SLP332 T10721117
                 56008 =
2014-11-22 01:53 METAR KLNS 220653Z AUTO 28003KT 10SM CLR M06/M12 A3051 RMK AO2 SLP336 T10611122
                 =
2014-11-22 00:53 METAR KLNS 220553Z AUTO 25003KT 10SM CLR M06/M12 A3052 RMK AO2 SLP340 T10561122
                 11033 21072 53003 =
2014-11-21 22:53 METAR KLNS 220353Z AUTO 25004KT 10SM CLR M05/M12 A3051 RMK AO2 SLP338 T10501122
                 =
2014-11-21 21:53 METAR KLNS 220253Z 28004KT 10SM CLR M05/M12 A3051 RMK AO2 SLP337 T10501122 50004
                 =
2014-11-21 19:53 METAR KLNS 220053Z 31006KT 10SM CLR M05/M12 A3051 RMK AO2 SLP337 T10501122 =
2014-11-21 18:53 METAR KLNS 212353Z 29005KT 10SM CLR M04/M12 A3050 RMK AO2 SLP334 T10391122 10017
                 21039 51021 =
2014-11-21 17:53 METAR KLNS 212253Z 28006KT 10SM CLR M03/M13 A3048 RMK AO2 SLP328 T10281128 =
2014-11-21 16:53 METAR KLNS 212153Z 30009KT 10SM CLR M02/M13 A3046 RMK AO2 SLP319 T10171128 =
2014-11-21 15:53 METAR KLNS 212053Z 31009KT 10SM CLR 00/M13 A3043 RMK AO2 SLP311 T00001133 53017
                 =
2014-11-21 14:53 METAR KLNS 211953Z 33008KT 10SM CLR 01/M13 A3041 RMK AO2 SLP302 T00111133 =
2014-11-21 13:53 METAR KLNS 211853Z 31015KT 10SM CLR 01/M13 A3039 RMK AO2 SLP296 T00111133 =
2014-11-21 12:53 METAR KLNS 211753Z 31015G20KT 10SM CLR 01/M13 A3038 RMK AO2 SLP294 T00061133
                 10006 21067 51007 =
2014-11-21 11:53 METAR KLNS 211653Z 30015G24KT 10SM CLR 01/M13 A3037 RMK AO2 PK WND 29026/1620
                 SLP288 T00061133 =
2014-11-21 10:53 METAR KLNS 211553Z 10SM CLR M01/M14 A3038 RMK AO2 SLP292 T10061139 =
2014-11-21 09:53 METAR KLNS 211453Z 30018G25KT 10SM CLR M02/M14 A3036 RMK AO2 PK WND 31027/1440
                 SLP287 T10171139 51028 =
2014-11-21 08:53 METAR KLNS 211353Z 30014G21KT 10SM CLR M02/M13 A3035 RMK AO2 SLP282 T10221133 =
2014-11-21 07:53 METAR KLNS 211253Z 28011KT 10SM CLR M04/M12 A3031 RMK AO2 SLP268 T10391122 =
2014-11-21 06:53 METAR KLNS 211153Z 26004KT 10SM OVC050 M06/M12 A3028 RMK AO2 SLP258 7////
                 T10561122 11033 21067 53033 =
2014-11-21 05:53 METAR KLNS 211053Z 27006KT 10SM CLR M06/M13 A3024 RMK AO2 SLP244 T10611128 =

Support USWX by starting your Amazon purchase here.